Time;durP1;ratioP1;P1;durP2;ratioP2;P2;SDS_P1;SDS_P2;PMS_P1;PMS_P2;Temp;Humidity;BMP_temperature;BMP_pressure;BME280_temperature;BME280_humidity;BME280_pressure;Samples;Min_cycle;Max_cycle;Signal;HPM_P1;HPM_P2
2023/05/14 00:01:15;;;;;;;3.00;2.40;;;14.40;97.30;;;;;;4974544;28;20200;-90
2023/05/14 00:03:40;;;;;;;3.53;3.33;;;14.40;97.30;;;;;;4975237;28;20177;-90
2023/05/14 00:06:07;;;;;;;3.77;2.70;;;14.40;97.30;;;;;;4975297;28;20198;-90
2023/05/14 00:08:33;;;;;;;4.10;3.63;;;14.40;97.30;;;;;;4991434;28;20232;-90
2023/05/14 00:10:58;;;;;;;4.10;2.80;;;14.40;97.30;;;;;;4993848;28;20429;-90
2023/05/14 00:13:25;;;;;;;2.80;2.27;;;14.40;97.30;;;;;;4975702;28;20185;-90
2023/05/14 00:15:50;;;;;;;3.10;1.97;;;14.40;97.30;;;;;;4975027;28;20321;-90
2023/05/14 00:18:16;;;;;;;3.80;2.60;;;14.40;97.30;;;;;;4991508;28;20413;-90
2023/05/14 00:20:41;;;;;;;4.07;3.13;;;14.40;97.30;;;;;;4975286;28;20204;-90
2023/05/14 00:23:07;;;;;;;5.10;3.20;;;14.40;97.30;;;;;;4973974;28;20289;-91
2023/05/14 00:25:32;;;;;;;5.10;2.57;;;14.40;97.30;;;;;;4975295;28;20177;-90
2023/05/14 00:27:58;;;;;;;1.97;1.77;;;14.30;97.30;;;;;;4989505;28;20208;-90
2023/05/14 00:30:23;;;;;;;3.03;1.97;;;14.30;97.30;;;;;;4977263;28;20541;-90
2023/05/14 00:32:49;;;;;;;2.93;2.57;;;14.30;97.30;;;;;;4996236;28;20178;-90
2023/05/14 00:35:14;;;;;;;2.57;2.40;;;14.20;97.30;;;;;;4995332;28;20198;-90
2023/05/14 00:37:40;;;;;;;2.20;2.00;;;14.20;97.30;;;;;;4977276;28;20232;-90
2023/05/14 00:40:07;;;;;;;2.63;2.43;;;14.10;97.30;;;;;;4995912;28;20546;-90
2023/05/14 00:42:33;;;;;;;2.77;2.60;;;14.00;97.30;;;;;;4978393;28;20234;-90
2023/05/14 00:44:58;;;;;;;2.87;2.60;;;14.00;97.30;;;;;;4978392;28;20527;-90
2023/05/14 00:47:24;;;;;;;3.90;2.50;;;14.00;97.30;;;;;;4973515;28;20234;-90
2023/05/14 00:49:50;;;;;;;2.73;2.20;;;14.00;97.30;;;;;;4975413;28;20194;-90
2023/05/14 00:52:15;;;;;;;2.87;2.20;;;13.90;97.30;;;;;;4974782;28;20422;-90
2023/05/14 00:54:41;;;;;;;5.17;3.33;;;14.00;97.30;;;;;;4974800;28;20230;-90
2023/05/14 00:57:07;;;;;;;3.57;2.57;;;14.00;97.30;;;;;;4974638;28;20213;-90
2023/05/14 00:59:33;;;;;;;9.90;2.27;;;14.00;97.30;;;;;;4974939;28;20437;-90
2023/05/14 01:01:59;;;;;;;3.10;2.40;;;13.90;97.30;;;;;;4982374;28;20426;-90
2023/05/14 01:04:24;;;;;;;2.80;2.30;;;13.90;97.30;;;;;;4975184;28;20221;-91
2023/05/14 01:07:15;;;;;;;2.80;2.60;;;13.90;97.30;;;;;;4973795;28;20732;-90
2023/05/14 01:09:48;;;;;;;3.63;2.53;;;13.90;97.30;;;;;;4970213;28;20178;-91
2023/05/14 01:12:32;;;;;;;3.37;2.50;;;13.90;97.30;;;;;;4975250;28;20469;-90
2023/05/14 01:15:14;;;;;;;10.60;3.90;;;13.80;97.30;;;;;;4974952;28;20547;-91
2023/05/14 01:17:56;;;;;;;4.47;4.23;;;13.80;97.30;;;;;;4974795;28;20960;-91
2023/05/14 01:20:22;;;;;;;3.47;2.47;;;13.80;97.30;;;;;;4974853;28;21106;-91
2023/05/14 01:22:48;;;;;;;3.73;3.53;;;13.80;97.30;;;;;;4973247;28;20425;-90
2023/05/14 01:25:13;;;;;;;5.13;2.90;;;13.80;97.30;;;;;;4976073;28;20434;-90
2023/05/14 01:27:46;;;;;;;18.93;3.60;;;13.80;97.30;;;;;;4973249;28;20218;-91
2023/05/14 01:30:23;;;;;;;4.77;4.00;;;13.80;97.30;;;;;;4975938;28;20233;-90
2023/05/14 01:32:53;;;;;;;2.23;2.03;;;13.70;97.30;;;;;;4974746;28;21055;-90
2023/05/14 01:35:22;;;;;;;2.70;2.50;;;13.70;97.30;;;;;;4974373;28;20457;-90
2023/05/14 01:37:48;;;;;;;2.10;2.00;;;13.70;97.30;;;;;;4973199;28;20442;-90
2023/05/14 01:40:14;;;;;;;2.40;2.03;;;13.70;97.30;;;;;;4980745;28;20422;-90
2023/05/14 01:42:41;;;;;;;3.67;2.50;;;13.70;97.30;;;;;;4975309;28;20434;-91
2023/05/14 01:45:07;;;;;;;12.53;4.40;;;13.70;97.30;;;;;;4974434;28;20190;-91
2023/05/14 01:47:32;;;;;;;4.53;3.13;;;13.70;97.30;;;;;;4987838;28;20476;-90
2023/05/14 01:49:58;;;;;;;3.60;3.40;;;13.70;97.30;;;;;;4977844;28;20436;-90
2023/05/14 01:52:23;;;;;;;4.73;3.83;;;13.70;97.30;;;;;;4977721;28;20197;-90
2023/05/14 01:54:49;;;;;;;6.70;4.27;;;13.60;97.30;;;;;;5007787;28;20285;-90
2023/05/14 01:57:14;;;;;;;3.97;3.00;;;13.60;97.30;;;;;;4976153;28;20198;-90
2023/05/14 01:59:40;;;;;;;3.60;3.23;;;13.60;97.30;;;;;;4978085;28;20192;-91
2023/05/14 02:02:05;;;;;;;2.80;2.57;;;13.60;97.30;;;;;;4977620;28;20200;-91
2023/05/14 02:04:31;;;;;;;5.37;3.70;;;13.60;97.30;;;;;;4977738;28;20186;-91
2023/05/14 02:06:56;;;;;;;2.80;2.47;;;13.60;97.30;;;;;;4975977;28;20815;-90
2023/05/14 02:09:22;;;;;;;3.00;2.70;;;13.60;97.30;;;;;;4977375;28;20276;-91
2023/05/14 02:11:47;;;;;;;5.93;3.30;;;13.50;97.30;;;;;;4977152;28;20235;-91
2023/05/14 02:14:14;;;;;;;5.00;3.53;;;13.50;97.30;;;;;;4994337;28;20193;-91
2023/05/14 02:16:39;;;;;;;4.50;2.60;;;13.50;97.30;;;;;;4975475;28;20333;-91
2023/05/14 02:19:05;;;;;;;11.67;3.73;;;13.50;97.30;;;;;;4981599;28;20487;-91
2023/05/14 02:21:30;;;;;;;3.20;2.97;;;13.50;97.30;;;;;;4976778;28;20214;-91
2023/05/14 02:23:56;;;;;;;4.17;2.57;;;13.50;97.30;;;;;;4976950;28;20170;-91
2023/05/14 02:26:22;;;;;;;2.53;2.33;;;13.40;97.30;;;;;;4976685;28;20631;-91
2023/05/14 02:28:47;;;;;;;3.43;2.80;;;13.40;97.30;;;;;;4975536;28;20243;-90
2023/05/14 02:31:13;;;;;;;3.00;2.83;;;13.40;97.30;;;;;;4976936;28;20196;-91
2023/05/14 02:33:39;;;;;;;9.00;3.80;;;13.40;97.30;;;;;;4994176;28;20690;-91
2023/05/14 02:36:04;;;;;;;4.97;4.20;;;13.40;97.30;;;;;;4993775;28;20237;-91
2023/05/14 02:38:30;;;;;;;4.47;3.40;;;13.40;97.30;;;;;;4975395;28;20243;-90
2023/05/14 02:40:55;;;;;;;3.70;3.50;;;13.40;97.30;;;;;;5000847;28;20664;-90
2023/05/14 02:43:21;;;;;;;4.70;2.87;;;13.30;97.30;;;;;;4993752;28;20185;-90
2023/05/14 02:48:13;;;;;;;5.63;3.33;;;13.30;97.30;;;;;;5060650;23;20260;-88
2023/05/14 02:50:39;;;;;;;3.80;2.70;;;13.30;97.30;;;;;;5031393;28;20451;-88
2023/05/14 02:53:04;;;;;;;2.77;2.57;;;13.30;97.30;;;;;;5030943;28;20670;-88
2023/05/14 02:55:30;;;;;;;3.13;2.70;;;13.30;97.30;;;;;;5030850;28;20205;-88
2023/05/14 02:57:55;;;;;;;2.90;2.70;;;13.30;97.30;;;;;;5031852;28;20670;-89
2023/05/14 03:00:21;;;;;;;5.20;3.33;;;13.30;97.30;;;;;;5035204;28;20244;-88
2023/05/14 03:02:47;;;;;;;4.73;2.70;;;13.20;97.30;;;;;;5053281;28;20591;-89
2023/05/14 03:05:12;;;;;;;5.53;3.17;;;13.20;97.30;;;;;;5035954;28;20192;-88
2023/05/14 03:07:38;;;;;;;2.30;2.10;;;13.20;97.30;;;;;;5034739;28;20206;-88
2023/05/14 03:10:04;;;;;;;6.13;3.80;;;13.20;97.30;;;;;;5034636;28;20191;-87
2023/05/14 03:12:30;;;;;;;4.77;3.10;;;13.20;97.30;;;;;;5034201;28;20844;-88
2023/05/14 03:14:55;;;;;;;6.37;3.20;;;13.20;97.30;;;;;;5034147;28;20461;-88
2023/05/14 03:17:21;;;;;;;4.23;3.97;;;13.20;97.30;;;;;;5032542;28;20206;-88
2023/05/14 03:19:46;;;;;;;5.20;4.40;;;13.10;97.30;;;;;;5034121;28;20676;-88
2023/05/14 03:22:12;;;;;;;5.73;2.60;;;13.10;97.30;;;;;;5033889;28;20171;-88
2023/05/14 03:24:39;;;;;;;3.00;2.57;;;13.10;97.30;;;;;;5034279;28;20207;-88
2023/05/14 03:27:04;;;;;;;3.40;3.13;;;13.10;97.30;;;;;;5050373;28;20207;-87
2023/05/14 03:29:30;;;;;;;3.40;2.27;;;13.10;97.30;;;;;;5034140;28;20410;-88
2023/05/14 03:31:56;;;;;;;4.07;3.27;;;13.00;97.30;;;;;;5034112;28;20172;-88
2023/05/14 03:34:21;;;;;;;2.80;2.63;;;13.00;97.30;;;;;;5033232;28;20183;-88
2023/05/14 03:36:47;;;;;;;3.27;3.10;;;13.00;97.30;;;;;;5050225;28;20224;-88
2023/05/14 03:39:18;;;;;;;5.77;3.30;;;13.00;97.30;;;;;;5033965;28;20172;-85
2023/05/14 03:41:45;;;;;;;4.17;2.50;;;13.00;97.30;;;;;;5033655;28;20175;-87
2023/05/14 03:44:11;;;;;;;3.80;3.50;;;13.00;97.30;;;;;;5033619;28;20929;-88
2023/05/14 03:46:36;;;;;;;3.20;3.00;;;13.00;97.30;;;;;;5031870;28;20485;-87
2023/05/14 03:49:02;;;;;;;5.43;3.20;;;13.00;97.30;;;;;;5033843;28;20176;-88
2023/05/14 03:51:28;;;;;;;2.97;2.83;;;13.00;97.30;;;;;;5025701;28;20614;-88
2023/05/14 03:53:53;;;;;;;3.70;2.50;;;12.90;97.30;;;;;;5033815;28;20199;-89
2023/05/14 03:56:18;;;;;;;2.87;2.40;;;12.90;97.30;;;;;;5033640;28;20207;-86
2023/05/14 03:58:44;;;;;;;3.30;2.60;;;12.90;97.30;;;;;;5050224;28;20176;-88
2023/05/14 04:01:09;;;;;;;4.63;3.23;;;12.90;97.30;;;;;;5033787;28;20187;-88
2023/05/14 04:03:35;;;;;;;3.33;3.13;;;12.90;97.30;;;;;;5034911;28;20225;-88
2023/05/14 04:06:00;;;;;;;3.10;2.67;;;12.90;97.30;;;;;;5037909;28;20662;-87
2023/05/14 04:08:26;;;;;;;3.73;2.30;;;12.90;97.30;;;;;;5036158;28;20199;-88
2023/05/14 04:10:51;;;;;;;5.00;4.67;;;12.90;97.30;;;;;;5037731;28;20297;-88
2023/05/14 04:13:17;;;;;;;8.80;2.87;;;12.90;97.30;;;;;;5037656;28;20192;-88
2023/05/14 04:15:42;;;;;;;3.80;2.50;;;12.90;97.30;;;;;;5037680;28;20199;-88
2023/05/14 04:18:08;;;;;;;4.13;3.10;;;12.90;97.30;;;;;;5035945;28;20247;-87
2023/05/14 04:20:33;;;;;;;2.60;2.50;;;12.90;97.30;;;;;;5055409;28;20254;-88
2023/05/14 04:22:59;;;;;;;4.23;3.10;;;12.90;97.30;;;;;;5037382;28;20210;-88
2023/05/14 04:25:24;;;;;;;3.10;2.73;;;12.80;97.30;;;;;;5036902;28;20188;-87
2023/05/14 04:27:50;;;;;;;2.97;2.77;;;12.80;97.30;;;;;;5035440;28;20253;-88
2023/05/14 04:30:16;;;;;;;7.03;3.50;;;12.90;97.30;;;;;;5037565;28;20184;-88
2023/05/14 04:32:41;;;;;;;4.67;2.43;;;12.90;97.30;;;;;;5036732;28;20195;-87
2023/05/14 04:35:09;;;;;;;3.17;3.00;;;12.90;97.30;;;;;;5037099;28;20195;-88
2023/05/14 04:37:34;;;;;;;5.43;2.27;;;13.00;97.30;;;;;;5053520;28;20184;-88
2023/05/14 04:40:00;;;;;;;3.33;2.30;;;13.00;97.30;;;;;;5037385;28;20476;-85
2023/05/14 04:42:25;;;;;;;4.90;3.03;;;13.00;97.30;;;;;;5037127;28;20562;-88
2023/05/14 04:44:51;;;;;;;2.43;1.90;;;13.00;97.30;;;;;;5037114;28;20272;-88
2023/05/14 04:47:16;;;;;;;2.57;2.37;;;13.00;97.30;;;;;;5035344;28;20242;-88
2023/05/14 04:49:42;;;;;;;2.90;2.60;;;13.00;97.30;;;;;;5037173;28;20650;-88
2023/05/14 04:52:08;;;;;;;8.47;3.80;;;13.10;97.30;;;;;;5036324;28;20176;-87
2023/05/14 04:54:33;;;;;;;5.50;4.40;;;13.10;97.30;;;;;;5036715;28;20187;-89
2023/05/14 04:57:02;;;;;;;3.83;3.30;;;13.10;97.30;;;;;;5035125;28;20208;-87
2023/05/14 04:59:30;;;;;;;3.33;2.87;;;13.20;97.30;;;;;;5036759;28;20532;-86
2023/05/14 05:01:57;;;;;;;5.77;3.13;;;13.20;97.30;;;;;;5036867;28;20548;-87
2023/05/14 05:04:22;;;;;;;3.80;3.60;;;13.30;97.30;;;;;;5036462;28;20418;-88
2023/05/14 05:06:49;;;;;;;2.87;2.23;;;13.30;97.30;;;;;;5053217;28;20654;-88
2023/05/14 05:09:16;;;;;;;6.80;3.70;;;13.40;97.30;;;;;;5036501;28;20226;-88
2023/05/14 05:11:42;;;;;;;3.33;3.10;;;13.40;97.30;;;;;;5036742;28;21137;-88
2023/05/14 05:14:07;;;;;;;2.20;2.00;;;13.40;97.30;;;;;;5036540;28;20418;-86
2023/05/14 05:16:33;;;;;;;1.93;1.80;;;13.40;97.30;;;;;;5031981;28;20722;-88
2023/05/14 05:18:58;;;;;;;5.10;3.30;;;13.40;97.30;;;;;;5035790;28;20267;-87
2023/05/14 05:21:24;;;;;;;3.03;2.40;;;13.50;97.30;;;;;;5036489;28;20179;-88
2023/05/14 05:23:49;;;;;;;5.80;3.20;;;13.50;97.30;;;;;;5036581;28;20282;-87
2023/05/14 05:26:15;;;;;;;5.30;5.00;;;13.50;97.30;;;;;;5056628;28;20184;-91
2023/05/14 05:28:41;;;;;;;6.10;3.30;;;13.60;97.30;;;;;;5077989;28;20203;-90
2023/05/14 05:31:06;;;;;;;5.10;3.23;;;13.70;97.30;;;;;;5076784;28;20188;-85
2023/05/14 05:33:33;;;;;;;8.63;2.67;;;13.70;97.30;;;;;;5045590;28;20172;-87
2023/05/14 05:35:59;;;;;;;5.53;3.93;;;13.70;97.30;;;;;;5036530;28;20251;-87
2023/05/14 05:38:24;;;;;;;3.80;3.20;;;13.70;97.30;;;;;;5034962;28;20913;-88
2023/05/14 05:40:50;;;;;;;3.13;2.70;;;13.70;97.30;;;;;;5036056;28;20263;-87
2023/05/14 05:43:15;;;;;;;4.13;2.50;;;13.70;97.30;;;;;;5035965;28;20176;-88
2023/05/14 05:45:41;;;;;;;6.83;3.50;;;13.80;97.30;;;;;;5036091;28;20210;-88
2023/05/14 05:48:06;;;;;;;5.10;2.63;;;13.80;97.30;;;;;;5034500;28;20266;-88
2023/05/14 05:50:32;;;;;;;2.23;2.03;;;13.90;97.30;;;;;;5035882;28;20267;-88
2023/05/14 05:53:00;;;;;;;3.20;3.00;;;14.00;97.30;;;;;;5053598;28;20184;-88
2023/05/14 05:55:26;;;;;;;4.50;2.40;;;14.00;97.30;;;;;;5053451;28;20559;-88
2023/05/14 05:57:51;;;;;;;6.23;3.93;;;14.00;97.30;;;;;;5034294;28;20442;-88
2023/05/14 06:00:17;;;;;;;4.97;2.67;;;14.10;97.30;;;;;;5033464;28;20237;-89
2023/05/14 06:02:43;;;;;;;8.87;3.37;;;14.10;97.30;;;;;;5053643;28;20183;-88
2023/05/14 06:05:09;;;;;;;3.93;2.60;;;14.20;97.30;;;;;;5035575;28;20422;-87
2023/05/14 06:07:35;;;;;;;4.23;3.10;;;14.20;97.30;;;;;;5034125;28;20196;-88
2023/05/14 06:10:01;;;;;;;10.73;3.33;;;14.20;97.30;;;;;;5035001;28;20426;-87
2023/05/14 06:12:26;;;;;;;7.47;3.03;;;14.20;97.30;;;;;;5035532;28;20984;-87
2023/05/14 06:14:54;;;;;;;3.83;2.90;;;14.30;97.30;;;;;;5035383;28;20192;-88
2023/05/14 06:17:20;;;;;;;8.53;4.07;;;14.30;97.30;;;;;;5033915;28;20251;-88
2023/05/14 06:19:45;;;;;;;4.20;3.10;;;14.40;97.30;;;;;;5035429;28;20925;-88
2023/05/14 06:22:11;;;;;;;3.20;3.00;;;14.60;97.30;;;;;;5035398;28;20425;-85
2023/05/14 06:24:36;;;;;;;4.40;3.60;;;14.70;97.30;;;;;;5052727;28;20180;-88
2023/05/14 06:27:02;;;;;;;4.63;3.33;;;14.80;97.30;;;;;;5033917;28;20294;-88
2023/05/14 06:29:27;;;;;;;7.10;3.30;;;14.90;97.30;;;;;;5036069;28;20635;-88
2023/05/14 06:31:53;;;;;;;3.33;2.83;;;14.90;97.30;;;;;;5037887;28;20180;-88
2023/05/14 06:34:18;;;;;;;3.90;3.17;;;15.00;97.30;;;;;;5037627;28;20184;-89
2023/05/14 06:36:44;;;;;;;6.43;3.30;;;15.00;97.30;;;;;;5052831;28;20199;-88
2023/05/14 06:39:11;;;;;;;3.27;3.07;;;15.10;97.30;;;;;;5036112;28;20229;-88
2023/05/14 06:41:36;;;;;;;4.10;2.87;;;15.10;97.30;;;;;;5044864;28;20430;-88
2023/05/14 06:44:02;;;;;;;4.70;4.40;;;15.20;97.30;;;;;;5035220;28;20413;-87
2023/05/14 06:46:28;;;;;;;7.23;4.37;;;15.20;97.30;;;;;;5034893;28;20915;-88
2023/05/14 06:48:53;;;;;;;2.93;2.57;;;15.30;97.30;;;;;;5034256;28;20182;-88
2023/05/14 06:51:19;;;;;;;2.90;2.53;;;15.50;97.30;;;;;;5034423;28;20225;-88
2023/05/14 06:53:45;;;;;;;6.33;3.00;;;15.50;97.30;;;;;;5034620;28;20179;-88
2023/05/14 06:56:12;;;;;;;3.73;3.27;;;15.60;97.30;;;;;;5034427;28;20712;-88
2023/05/14 06:58:37;;;;;;;4.30;3.10;;;15.70;97.30;;;;;;5032114;28;20414;-91
2023/05/14 07:01:03;;;;;;;4.40;3.33;;;15.80;97.30;;;;;;5044184;28;20466;-84
2023/05/14 07:03:29;;;;;;;4.87;3.00;;;15.90;97.20;;;;;;5048581;28;20179;-86
2023/05/14 07:05:54;;;;;;;3.00;2.60;;;15.90;96.90;;;;;;5050996;28;20176;-84
2023/05/14 07:08:20;;;;;;;3.87;3.67;;;16.00;96.80;;;;;;5037605;28;20172;-85
2023/05/14 07:10:45;;;;;;;5.47;4.60;;;16.10;96.70;;;;;;5035781;28;20179;-83
2023/05/14 07:13:11;;;;;;;3.57;2.97;;;16.20;96.40;;;;;;5037156;28;20184;-84
2023/05/14 07:15:36;;;;;;;4.77;2.83;;;16.30;96.50;;;;;;5034752;28;20716;-84
2023/05/14 07:18:02;;;;;;;6.30;2.40;;;16.40;95.90;;;;;;5033576;28;20200;-83
2023/05/14 07:20:27;;;;;;;2.70;2.50;;;16.50;95.90;;;;;;5044676;28;20180;-84
2023/05/14 07:22:53;;;;;;;4.17;3.93;;;16.60;95.20;;;;;;5036658;28;20267;-85
2023/05/14 07:25:18;;;;;;;3.37;2.63;;;16.70;95.70;;;;;;5040577;28;20193;-84
2023/05/14 07:27:44;;;;;;;3.20;3.00;;;16.80;95.80;;;;;;5033220;28;20235;-85
2023/05/14 07:30:10;;;;;;;2.97;2.40;;;16.90;95.20;;;;;;5038508;28;20553;-85
2023/05/14 07:32:35;;;;;;;2.73;2.53;;;17.00;94.80;;;;;;5038812;28;20200;-84
2023/05/14 07:35:01;;;;;;;9.20;3.73;;;17.10;94.70;;;;;;5034325;28;20200;-86
2023/05/14 07:37:26;;;;;;;3.07;2.87;;;17.10;93.10;;;;;;5032323;28;20615;-84
2023/05/14 07:39:52;;;;;;;5.50;3.83;;;17.10;93.10;;;;;;5033344;28;20191;-88
2023/05/14 07:42:18;;;;;;;3.20;3.00;;;17.10;93.40;;;;;;5033948;28;20198;-87
2023/05/14 07:44:43;;;;;;;3.07;2.10;;;17.20;93.70;;;;;;5051837;28;20184;-87
2023/05/14 07:47:09;;;;;;;7.23;2.93;;;17.40;93.80;;;;;;5032250;28;20281;-86
2023/05/14 07:49:35;;;;;;;4.37;4.10;;;17.50;93.20;;;;;;5046675;28;20242;-84
2023/05/14 07:52:01;;;;;;;3.03;2.77;;;17.50;92.60;;;;;;5041063;28;20659;-88
2023/05/14 07:54:26;;;;;;;8.00;2.40;;;17.60;93.90;;;;;;5033743;28;20418;-86
2023/05/14 07:56:52;;;;;;;4.40;3.40;;;17.60;93.20;;;;;;5039011;28;20199;-84
2023/05/14 07:59:17;;;;;;;5.10;4.30;;;17.70;93.00;;;;;;5039533;28;20792;-89
2023/05/14 08:01:43;;;;;;;4.13;2.70;;;17.80;92.60;;;;;;5035548;28;20234;-85
2023/05/14 08:04:10;;;;;;;4.63;3.07;;;17.80;92.40;;;;;;5034100;28;20203;-83
2023/05/14 08:06:36;;;;;;;8.20;2.53;;;17.90;92.80;;;;;;5034491;28;20207;-86
2023/05/14 08:09:04;;;;;;;5.53;2.93;;;18.00;92.60;;;;;;5041886;28;20490;-87
2023/05/14 08:11:29;;;;;;;3.10;2.40;;;18.10;91.70;;;;;;5044149;28;20180;-82
2023/05/14 08:13:55;;;;;;;5.63;3.37;;;18.10;91.80;;;;;;5035148;28;20414;-89
2023/05/14 08:16:21;;;;;;;14.13;5.20;;;18.20;92.10;;;;;;5035527;28;20208;-84
2023/05/14 08:18:47;;;;;;;3.87;3.47;;;18.30;92.30;;;;;;5033622;28;20172;-84
2023/05/14 08:21:13;;;;;;;3.73;3.27;;;18.30;91.40;;;;;;5034577;28;20214;-85
2023/05/14 08:23:38;;;;;;;6.80;3.40;;;18.20;90.10;;;;;;5042888;28;20415;-87
2023/05/14 08:26:04;;;;;;;4.73;3.10;;;18.20;91.40;;;;;;5044159;28;20657;-88
2023/05/14 08:28:29;;;;;;;4.27;3.20;;;18.30;91.20;;;;;;5046240;28;20777;-82
2023/05/14 08:30:55;;;;;;;5.53;2.87;;;18.30;91.70;;;;;;5042866;28;20194;-86
2023/05/14 08:33:20;;;;;;;4.90;2.30;;;18.40;91.20;;;;;;5036866;28;20219;-84
2023/05/14 08:35:46;;;;;;;3.03;2.83;;;18.40;90.10;;;;;;5039407;28;20195;-84
2023/05/14 08:38:11;;;;;;;5.37;2.60;;;18.50;91.00;;;;;;5036034;28;20196;-83
2023/05/14 08:40:37;;;;;;;7.70;2.93;;;18.70;89.50;;;;;;5050631;28;20230;-83
2023/05/14 08:43:04;;;;;;;3.47;2.00;;;18.80;89.70;;;;;;5037715;28;20164;-88
2023/05/14 08:45:33;;;;;;;5.93;4.10;;;18.90;89.90;;;;;;5032869;28;20218;-88
2023/05/14 08:48:04;;;;;;;4.70;2.67;;;19.00;88.60;;;;;;5028611;28;20593;-88
2023/05/14 08:50:30;;;;;;;4.57;3.27;;;19.10;87.90;;;;;;5035768;28;20661;-88
2023/05/14 08:52:56;;;;;;;3.57;2.30;;;19.10;87.90;;;;;;5036439;28;20971;-89
2023/05/14 08:55:21;;;;;;;2.90;2.60;;;19.10;87.90;;;;;;5033754;28;20461;-89
2023/05/14 08:57:47;;;;;;;2.73;2.53;;;19.20;89.70;;;;;;5034424;28;20200;-88
2023/05/14 09:00:13;;;;;;;2.67;2.50;;;19.20;88.30;;;;;;5036467;28;20171;-87
2023/05/14 09:02:41;;;;;;;1.77;1.73;;;19.30;87.70;;;;;;5036784;28;20781;-88
2023/05/14 09:05:08;;;;;;;5.60;3.30;;;19.30;85.70;;;;;;5054454;28;20831;-88
2023/05/14 09:07:34;;;;;;;2.90;2.50;;;19.30;84.80;;;;;;5035824;28;20538;-89
2023/05/14 09:10:00;;;;;;;3.03;2.67;;;19.40;86.70;;;;;;5036874;28;20876;-89
2023/05/14 09:12:26;;;;;;;5.03;2.67;;;19.60;84.90;;;;;;5054514;28;20457;-89
2023/05/14 09:14:52;;;;;;;2.30;2.10;;;19.70;85.10;;;;;;5036786;28;20487;-88
2023/05/14 09:17:18;;;;;;;3.03;2.50;;;19.80;84.70;;;;;;5036303;28;20215;-89
2023/05/14 09:19:47;;;;;;;3.20;2.87;;;19.70;83.90;;;;;;5030262;28;20172;-89
2023/05/14 09:22:15;;;;;;;4.30;3.00;;;19.70;84.40;;;;;;5053745;28;20418;-89
2023/05/14 09:24:41;;;;;;;18.40;3.17;;;19.60;84.60;;;;;;5043825;28;20398;-87
2023/05/14 09:27:08;;;;;;;2.90;2.70;;;19.50;84.20;;;;;;5040019;28;20434;-87
2023/05/14 09:29:34;;;;;;;3.17;2.20;;;19.40;84.10;;;;;;5041939;28;20411;-88
2023/05/14 09:32:04;;;;;;;3.23;2.23;;;19.60;85.50;;;;;;5037160;28;20489;-87
2023/05/14 09:34:32;;;;;;;3.10;2.20;;;19.80;85.20;;;;;;5034944;28;20172;-88
2023/05/14 09:37:00;;;;;;;2.63;2.43;;;19.90;83.80;;;;;;5035537;28;20441;-88
2023/05/14 09:39:27;;;;;;;3.63;2.70;;;19.90;82.50;;;;;;5052216;28;20423;-91
2023/05/14 09:41:53;;;;;;;4.67;2.60;;;19.70;83.00;;;;;;5061948;28;20434;-93
2023/05/14 09:44:19;;;;;;;2.37;2.17;;;19.70;84.00;;;;;;5070052;28;20438;-90
2023/05/14 09:46:46;;;;;;;5.03;2.33;;;19.70;83.80;;;;;;5036136;28;20494;-90
2023/05/14 09:49:11;;;;;;;2.23;2.03;;;19.80;84.20;;;;;;5055203;28;20418;-89
2023/05/14 09:51:37;;;;;;;4.63;2.30;;;19.90;83.60;;;;;;5038532;28;20497;-88
2023/05/14 09:54:09;;;;;;;2.27;2.07;;;20.00;81.80;;;;;;5033138;28;20191;-87
2023/05/14 09:56:35;;;;;;;3.83;2.60;;;20.00;81.80;;;;;;5030615;28;20477;-88
2023/05/14 09:59:02;;;;;;;3.47;2.00;;;20.10;83.70;;;;;;5029910;28;20419;-87
2023/05/14 10:01:29;;;;;;;5.90;3.37;;;20.30;82.80;;;;;;5044572;28;20429;-85
2023/05/14 10:03:55;;;;;;;2.67;2.50;;;20.50;81.50;;;;;;5033091;28;20418;-87
2023/05/14 10:06:24;;;;;;;2.20;2.00;;;20.50;81.00;;;;;;5030984;28;20483;-86
2023/05/14 10:09:08;;;;;;;2.23;2.10;;;20.60;80.50;;;;;;5031745;28;20563;-84
2023/05/14 10:11:37;;;;;;;9.23;2.80;;;20.50;80.50;;;;;;5015359;28;20796;-84
2023/05/14 10:14:28;;;;;;;3.60;2.43;;;20.50;81.40;;;;;;5028771;28;20801;-86
2023/05/14 10:16:57;;;;;;;1.80;1.63;;;20.70;80.70;;;;;;5028246;28;20478;-88
2023/05/14 10:19:24;;;;;;;4.90;2.13;;;20.70;79.10;;;;;;5028033;28;20422;-89
2023/05/14 10:21:58;;;;;;;1.67;1.53;;;20.60;79.80;;;;;;5030644;28;20410;-86
2023/05/14 10:24:24;;;;;;;3.07;2.20;;;20.70;79.40;;;;;;5023669;28;20429;-87
2023/05/14 10:26:51;;;;;;;7.93;2.60;;;20.80;78.70;;;;;;5026079;28;20441;-88
2023/05/14 10:29:16;;;;;;;2.80;2.10;;;20.70;78.40;;;;;;5027348;28;20820;-88
2023/05/14 10:31:53;;;;;;;2.50;2.37;;;20.60;78.90;;;;;;5026446;28;20426;-86
2023/05/14 10:34:33;;;;;;;4.73;3.30;;;20.40;80.50;;;;;;5041889;28;20195;-91
2023/05/14 10:37:00;;;;;;;2.80;2.60;;;20.10;81.40;;;;;;5028046;28;20433;-86
2023/05/14 10:39:41;;;;;;;2.53;2.03;;;20.00;83.30;;;;;;5050331;28;20410;-88
2023/05/14 10:42:23;;;;;;;5.40;2.83;;;19.90;83.10;;;;;;5029539;28;20568;-85
2023/05/14 10:45:01;;;;;;;4.37;2.53;;;19.80;82.70;;;;;;5030457;28;20422;-86
2023/05/14 10:47:27;;;;;;;5.17;3.03;;;19.60;82.70;;;;;;5016122;28;20469;-85
2023/05/14 10:49:56;;;;;;;6.70;2.20;;;19.60;82.70;;;;;;5028484;28;20939;-85
2023/05/14 10:52:23;;;;;;;1.80;1.70;;;19.50;82.60;;;;;;5028238;28;20810;-88
2023/05/14 10:54:54;;;;;;;2.57;2.37;;;19.50;82.60;;;;;;5030637;28;20725;-86
2023/05/14 10:57:22;;;;;;;3.40;2.67;;;19.60;83.30;;;;;;5028464;28;20450;-87
2023/05/14 10:59:53;;;;;;;2.13;1.83;;;19.60;84.20;;;;;;5045498;28;20804;-87
2023/05/14 11:02:26;;;;;;;4.73;2.47;;;19.70;84.50;;;;;;5048062;28;20501;-83
2023/05/14 11:05:06;;;;;;;2.40;2.27;;;19.70;84.40;;;;;;5027782;28;20456;-83
2023/05/14 11:07:37;;;;;;;3.00;2.70;;;20.00;84.80;;;;;;5045476;28;20441;-88
2023/05/14 11:10:08;;;;;;;1.43;1.33;;;20.40;84.50;;;;;;5022789;28;20491;-85
2023/05/14 11:12:36;;;;;;;2.50;2.10;;;20.70;83.30;;;;;;5024771;28;20546;-85
2023/05/14 11:15:04;;;;;;;2.40;2.20;;;20.90;80.40;;;;;;5026682;28;20545;-88
2023/05/14 11:17:30;;;;;;;4.70;2.67;;;21.00;81.10;;;;;;5025407;28;20503;-84
2023/05/14 11:19:57;;;;;;;2.13;1.97;;;21.00;79.00;;;;;;5029813;28;20441;-82
2023/05/14 11:22:22;;;;;;;4.27;3.13;;;20.90;80.30;;;;;;5030319;28;20518;-85
2023/05/14 11:24:48;;;;;;;4.63;2.80;;;20.90;81.30;;;;;;5028904;28;20820;-87
2023/05/14 11:27:14;;;;;;;2.53;2.40;;;20.80;79.90;;;;;;5032050;28;20453;-86
2023/05/14 11:29:46;;;;;;;2.60;2.40;;;20.60;80.20;;;;;;5029221;28;20462;-83
2023/05/14 11:32:13;;;;;;;2.40;2.10;;;20.40;81.10;;;;;;5028561;28;20442;-84
2023/05/14 11:34:39;;;;;;;2.30;1.97;;;20.40;82.30;;;;;;5030330;28;20477;-86
2023/05/14 11:37:07;;;;;;;1.97;1.87;;;20.40;82.40;;;;;;5029312;28;20434;-87
2023/05/14 11:39:34;;;;;;;2.70;1.90;;;20.40;83.50;;;;;;5030099;28;20410;-84
2023/05/14 11:42:08;;;;;;;2.93;2.73;;;20.40;82.90;;;;;;5022831;28;20458;-85
2023/05/14 11:44:34;;;;;;;5.50;2.53;;;20.40;81.70;;;;;;5027816;28;20419;-85
2023/05/14 11:47:03;;;;;;;2.20;2.00;;;20.40;82.20;;;;;;5028370;28;20450;-83
2023/05/14 11:49:29;;;;;;;3.13;2.93;;;20.30;83.30;;;;;;5029715;28;20398;-86
2023/05/14 11:51:59;;;;;;;1.90;1.80;;;20.20;82.90;;;;;;5023161;28;20422;-87
2023/05/14 11:54:29;;;;;;;1.60;1.50;;;20.10;83.20;;;;;;5023368;28;20202;-86
2023/05/14 11:56:59;;;;;;;3.07;2.30;;;19.90;83.10;;;;;;5022250;28;20453;-86
2023/05/14 11:59:27;;;;;;;3.00;2.70;;;19.80;82.50;;;;;;5044583;28;20476;-88
2023/05/14 12:01:53;;;;;;;2.43;2.13;;;19.80;83.20;;;;;;5030881;28;20418;-90
2023/05/14 12:04:21;;;;;;;1.47;1.40;;;19.70;83.10;;;;;;5049024;28;20786;-83
2023/05/14 12:06:50;;;;;;;2.20;2.10;;;19.70;83.30;;;;;;5046566;28;20441;-88
2023/05/14 12:09:18;;;;;;;3.63;1.50;;;19.50;83.60;;;;;;5043273;28;20422;-88
2023/05/14 12:11:48;;;;;;;2.40;2.27;;;19.40;84.10;;;;;;5018162;28;20426;-88
2023/05/14 12:14:22;;;;;;;2.43;2.23;;;19.30;84.70;;;;;;5041492;28;20423;-88
2023/05/14 12:16:48;;;;;;;2.70;2.10;;;19.30;85.40;;;;;;5031291;28;20466;-89
2023/05/14 12:19:15;;;;;;;1.80;1.70;;;19.30;86.10;;;;;;5044046;28;20419;-85
2023/05/14 12:21:49;;;;;;;3.63;3.30;;;19.30;86.40;;;;;;5035099;28;20423;-83
2023/05/14 12:24:18;;;;;;;2.20;2.00;;;19.20;86.40;;;;;;5031415;28;20417;-88
2023/05/14 12:26:45;;;;;;;2.57;1.33;;;19.20;86.80;;;;;;5039252;28;20795;-84
2023/05/14 12:29:12;;;;;;;3.23;2.17;;;19.20;87.10;;;;;;5034706;28;20952;-87
2023/05/14 12:31:44;;;;;;;7.83;3.20;;;19.10;87.20;;;;;;5036109;28;20426;-85
2023/05/14 12:34:10;;;;;;;2.30;2.20;;;19.10;87.50;;;;;;5036563;28;20420;-84
2023/05/14 12:36:35;;;;;;;1.93;1.80;;;19.00;87.70;;;;;;5040261;28;20529;-86
2023/05/14 12:39:02;;;;;;;2.27;2.07;;;19.10;88.00;;;;;;5039832;28;20187;-85
2023/05/14 12:41:31;;;;;;;1.83;1.73;;;19.10;88.50;;;;;;5040446;28;20186;-85
2023/05/14 12:43:58;;;;;;;2.30;2.10;;;19.10;88.60;;;;;;5031568;28;20418;-90
2023/05/14 12:46:25;;;;;;;2.93;2.50;;;19.00;88.10;;;;;;5051471;28;21065;-85